Etusivu
METAR-TAF:

METAR-TAF

Lentoasemat :

Fort Rucker, Alabama, Yhdysvallat

Leveyspiiri: 31-21-32N, Pituuspiiri: 085-44-54W, korkeus merenpinnasta: 78 m

Tämänhetkinen sää

Tämä raportti tehtiin 1 tunti ja 0 minuuttia sitten, kello 13.58 UTC
Tuuli 4 kn etelästä
Lämpötila 18°C
Kosteus 77%
Ilmanpaine 1015 hPa
Näkyvyys: 16.1 km
Pilvistä 17000 ft:n korkeudessa

METAR: KLOR 251358Z AUTO 18004KT 10SM OVC170 18/14 A2996 RMK AO2 SLP127 T01800138

Aika: 09:58 (14:58 UTC)


TAF: puuttuu

Säähavainnot ja -ennusteet yli 4000 lentoasemalta (METAR- ja TAF-raportit).

Käytössä olevat sääasemat on merkitty karttaan keltaisilla ja punaisilla pisteillä.

Aseta hiiri pisteen päälle nähdäksesi sääaseman nimen.

Klikkaa sitten nähdäksesi säähavainnot ja -ennusteet.

Kartan vaihtaminen: klikkaa mustalla rastilla varustettuja vihreitä pisteitä, niin voit zoomata sisään; viivalla varustettua vihreää pistettä, niin voit zoomata ulos tai vihreitä nuolia, niin pääset viereisille kartoille.


METAR-TAF: